createdAt,value
2023-04-19T00:00:08.515Z,11.29
2023-04-19T00:02:31.709Z,11.30
2023-04-19T00:04:53.638Z,11.33
2023-04-19T00:07:16.942Z,11.34
2023-04-19T00:09:38.694Z,11.33
2023-04-19T00:12:01.202Z,11.33
2023-04-19T00:14:22.980Z,11.33
2023-04-19T00:16:45.823Z,11.33
2023-04-19T00:19:07.524Z,11.33
2023-04-19T00:21:29.240Z,11.37
2023-04-19T00:23:51.605Z,11.38
2023-04-19T00:26:15.649Z,11.33
2023-04-19T00:28:42.561Z,11.31
2023-04-19T00:31:04.337Z,11.31
2023-04-19T00:33:26.031Z,11.30
2023-04-19T00:35:47.844Z,11.30
2023-04-19T00:38:09.526Z,11.32
2023-04-19T00:40:32.406Z,11.34
2023-04-19T00:42:55.372Z,11.31
2023-04-19T00:45:17.018Z,11.34
2023-04-19T00:47:39.069Z,11.34
2023-04-19T00:50:00.961Z,11.36
2023-04-19T00:52:23.443Z,11.36
2023-04-19T00:54:45.919Z,11.35
2023-04-19T00:57:08.625Z,11.34
2023-04-19T00:59:31.203Z,11.35
2023-04-19T01:01:53.359Z,11.36
2023-04-19T01:04:16.607Z,11.33
2023-04-19T01:06:41.154Z,11.36
2023-04-19T01:09:05.831Z,11.37
2023-04-19T01:11:29.138Z,11.40
2023-04-19T01:13:51.356Z,11.39
2023-04-19T01:16:13.382Z,11.43
2023-04-19T01:18:37.563Z,11.42
2023-04-19T01:20:59.981Z,11.44
2023-04-19T01:23:21.727Z,11.46
2023-04-19T01:25:44.245Z,11.49
2023-04-19T01:28:06.335Z,11.50
2023-04-19T01:30:30.444Z,11.52
2023-04-19T01:32:52.094Z,11.53
2023-04-19T01:35:15.104Z,11.55
2023-04-19T01:37:37.352Z,11.56
2023-04-19T01:39:58.930Z,11.57
2023-04-19T01:42:22.917Z,11.59
2023-04-19T01:44:44.677Z,11.59
2023-04-19T01:47:06.610Z,11.56
2023-04-19T01:49:29.249Z,11.52
2023-04-19T01:51:51.082Z,11.48
2023-04-19T01:54:13.096Z,11.47
2023-04-19T01:56:36.247Z,11.42
2023-04-19T01:58:58.024Z,11.37
2023-04-19T02:01:19.824Z,11.32
2023-04-19T02:03:42.629Z,11.29
2023-04-19T02:06:04.779Z,11.25
2023-04-19T02:08:27.576Z,11.22
2023-04-19T02:10:50.209Z,11.17
2023-04-19T02:13:12.290Z,11.14
2023-04-19T02:15:34.099Z,11.20
2023-04-19T02:17:55.863Z,11.22
2023-04-19T02:20:17.562Z,11.22
2023-04-19T02:22:39.330Z,11.18
2023-04-19T02:25:01.385Z,11.11
2023-04-19T02:27:25.477Z,11.09
2023-04-19T02:29:47.096Z,11.03
2023-04-19T02:32:08.955Z,11.02
2023-04-19T02:34:34.568Z,10.98
2023-04-19T02:36:56.265Z,10.95
2023-04-19T02:39:17.966Z,10.95
2023-04-19T02:41:39.681Z,10.90
2023-04-19T02:44:02.464Z,10.90
2023-04-19T02:46:24.193Z,10.87
2023-04-19T02:48:46.730Z,10.91
2023-04-19T02:51:08.578Z,10.91
2023-04-19T02:53:32.510Z,10.86
2023-04-19T02:55:54.495Z,10.81
2023-04-19T02:58:16.100Z,10.86
2023-04-19T03:00:58.050Z,10.83
2023-04-19T03:03:19.904Z,10.86
2023-04-19T03:05:41.669Z,10.83
2023-04-19T03:08:03.397Z,10.82
2023-04-19T03:10:26.196Z,10.83
2023-04-19T03:12:47.859Z,10.82
2023-04-19T03:15:10.482Z,10.83
2023-04-19T03:17:32.339Z,10.82
2023-04-19T03:19:54.299Z,10.81
2023-04-19T03:22:16.259Z,10.79
2023-04-19T03:24:38.202Z,10.72
2023-04-19T03:27:11.296Z,10.68
2023-04-19T03:29:32.989Z,10.66
2023-04-19T03:31:58.321Z,10.68
2023-04-19T03:34:20.051Z,10.70
2023-04-19T03:36:43.677Z,10.68
2023-04-19T03:39:06.294Z,10.66
2023-04-19T03:41:28.074Z,10.64
2023-04-19T03:44:17.427Z,10.58
2023-04-19T03:46:39.993Z,10.59
2023-04-19T03:49:02.138Z,10.55
2023-04-19T03:51:25.049Z,10.53
2023-04-19T03:53:47.485Z,10.45
2023-04-19T03:56:12.224Z,10.45
2023-04-19T03:58:34.012Z,10.39
2023-04-19T04:01:01.299Z,10.35
2023-04-19T04:03:23.052Z,10.34
2023-04-19T04:05:45.320Z,10.35
2023-04-19T04:08:07.757Z,10.37
2023-04-19T04:10:29.481Z,10.37
2023-04-19T04:12:51.388Z,10.34
2023-04-19T04:15:20.659Z,10.31
2023-04-19T04:17:46.755Z,10.23
2023-04-19T04:20:09.868Z,10.17
2023-04-19T04:22:31.595Z,10.08
2023-04-19T04:24:54.159Z,10.00
2023-04-19T04:27:23.924Z,9.94
2023-04-19T04:29:49.471Z,9.91
2023-04-19T04:32:12.202Z,9.90
2023-04-19T04:34:37.340Z,9.89
2023-04-19T04:37:04.305Z,9.85
2023-04-19T04:39:26.698Z,9.84
2023-04-19T04:41:49.619Z,9.80
2023-04-19T04:44:13.089Z,9.77
2023-04-19T04:46:36.511Z,9.71
2023-04-19T04:48:58.334Z,9.63
2023-04-19T04:51:20.277Z,9.55
2023-04-19T04:53:44.624Z,9.48
2023-04-19T04:56:06.671Z,9.37
2023-04-19T04:58:28.420Z,9.35
2023-04-19T05:00:55.752Z,9.33
2023-04-19T05:03:20.037Z,9.37
2023-04-19T05:05:47.887Z,9.42
2023-04-19T05:08:09.875Z,9.47
2023-04-19T05:10:33.835Z,9.55
2023-04-19T05:12:56.224Z,9.57
2023-04-19T05:15:18.453Z,9.65
2023-04-19T05:17:45.345Z,9.72
2023-04-19T05:20:08.908Z,9.80
2023-04-19T05:22:31.220Z,9.85
2023-04-19T05:24:53.675Z,9.92
2023-04-19T05:27:15.600Z,9.98
2023-04-19T05:29:37.517Z,10.08
2023-04-19T05:31:59.965Z,10.16
2023-04-19T05:34:27.574Z,10.22
2023-04-19T05:36:51.191Z,10.33
2023-04-19T05:39:13.568Z,10.36
2023-04-19T05:41:35.304Z,10.41
2023-04-19T05:43:57.050Z,10.41
2023-04-19T05:46:20.112Z,10.41
2023-04-19T05:48:42.009Z,10.40
2023-04-19T05:51:23.688Z,10.45
2023-04-19T05:54:15.626Z,10.48
2023-04-19T05:56:40.980Z,10.50
2023-04-19T05:59:03.013Z,10.45
2023-04-19T06:01:24.833Z,10.45
2023-04-19T06:03:46.890Z,10.47
2023-04-19T06:06:08.973Z,10.40
2023-04-19T06:08:31.690Z,10.41
2023-04-19T06:10:58.410Z,10.43
2023-04-19T06:13:24.861Z,10.45
2023-04-19T06:15:48.523Z,10.51
2023-04-19T06:18:11.006Z,10.54
2023-04-19T06:20:41.618Z,10.55
2023-04-19T06:23:04.300Z,10.59
2023-04-19T06:25:26.088Z,10.66
2023-04-19T06:27:48.010Z,10.72
2023-04-19T06:30:11.150Z,10.78
2023-04-19T06:32:32.914Z,10.78
2023-04-19T06:34:54.859Z,10.78
2023-04-19T06:37:17.563Z,10.84
2023-04-19T06:39:39.785Z,10.95
2023-04-19T06:42:02.443Z,11.02
2023-04-19T06:44:24.765Z,11.14
2023-04-19T06:46:46.528Z,11.23
2023-04-19T06:49:08.266Z,11.31
2023-04-19T06:51:30.528Z,11.39
2023-04-19T06:53:52.286Z,11.44
2023-04-19T06:56:13.971Z,11.44
2023-04-19T06:58:35.875Z,11.47
2023-04-19T07:00:57.786Z,11.51
2023-04-19T07:03:21.520Z,11.55
2023-04-19T07:05:43.533Z,11.59
2023-04-19T07:08:05.425Z,11.67
2023-04-19T07:10:27.322Z,11.78
2023-04-19T07:12:49.175Z,11.90
2023-04-19T07:15:11.887Z,11.95
2023-04-19T07:17:36.168Z,12.01
2023-04-19T07:19:58.043Z,12.06
2023-04-19T07:22:19.798Z,12.03
2023-04-19T07:24:44.481Z,12.02
2023-04-19T07:27:06.195Z,12.11
2023-04-19T07:29:27.936Z,12.20
2023-04-19T07:31:49.782Z,12.28
2023-04-19T07:34:11.563Z,12.37
2023-04-19T07:36:35.096Z,12.34
2023-04-19T07:38:57.861Z,12.34
2023-04-19T07:41:19.791Z,12.37
2023-04-19T07:43:41.635Z,12.46
2023-04-19T07:46:11.028Z,12.50
2023-04-19T07:48:32.907Z,12.47
2023-04-19T07:50:54.613Z,12.48
2023-04-19T07:53:16.944Z,12.56
2023-04-19T07:55:39.583Z,12.60
2023-04-19T07:58:02.496Z,12.74
2023-04-19T08:00:24.368Z,12.81
2023-04-19T08:02:48.233Z,12.83
2023-04-19T08:05:10.448Z,12.88
2023-04-19T08:07:32.202Z,12.90
2023-04-19T08:09:54.392Z,12.97
2023-04-19T08:12:26.879Z,13.04
2023-04-19T08:15:05.242Z,13.13
2023-04-19T08:17:40.705Z,13.26
2023-04-19T08:20:06.840Z,13.30
2023-04-19T08:22:28.395Z,13.35
2023-04-19T08:24:51.989Z,13.44
2023-04-19T08:27:14.159Z,13.61
2023-04-19T08:29:36.202Z,13.76
2023-04-19T08:31:58.027Z,13.92
2023-04-19T08:34:20.120Z,13.97
2023-04-19T08:36:51.619Z,13.92
2023-04-19T08:39:31.857Z,14.02
2023-04-19T08:42:06.621Z,14.01
2023-04-19T08:44:36.374Z,13.91
2023-04-19T08:47:01.218Z,13.97
2023-04-19T08:49:23.072Z,14.03
2023-04-19T08:51:45.170Z,14.18
2023-04-19T08:54:07.758Z,14.04
2023-04-19T08:56:35.676Z,13.80
2023-04-19T08:59:19.524Z,13.62
2023-04-19T09:01:42.338Z,13.62
2023-04-19T09:04:26.304Z,13.55
2023-04-19T09:06:49.443Z,13.56
2023-04-19T09:11:46.607Z,13.68
2023-04-19T09:14:15.548Z,13.76
2023-04-19T09:16:40.336Z,13.73
2023-04-19T09:21:31.796Z,13.77
2023-04-19T09:23:53.900Z,13.87
2023-04-19T09:26:23.325Z,13.96
2023-04-19T09:29:02.172Z,14.11
2023-04-19T09:31:43.265Z,14.30
2023-04-19T09:34:18.410Z,14.46
2023-04-19T09:36:41.211Z,14.57
2023-04-19T09:39:02.940Z,14.66
2023-04-19T09:41:28.498Z,14.83
2023-04-19T09:46:37.234Z,15.12
2023-04-19T09:49:25.069Z,15.19
2023-04-19T09:51:56.212Z,15.34
2023-04-19T09:54:20.445Z,15.39
2023-04-19T09:56:43.974Z,15.39
2023-04-19T09:59:19.328Z,15.25
2023-04-19T10:02:05.092Z,15.26
2023-04-19T10:04:43.605Z,15.28
2023-04-19T10:09:49.516Z,15.45
2023-04-19T10:14:43.648Z,15.17
2023-04-19T10:17:06.160Z,15.12
2023-04-19T10:19:29.339Z,15.15
2023-04-19T10:21:51.898Z,15.21
2023-04-19T10:24:15.700Z,15.21
2023-04-19T10:27:08.701Z,15.04
2023-04-19T10:30:07.051Z,14.96
2023-04-19T10:32:39.758Z,14.86
2023-04-19T10:35:04.770Z,14.71
2023-04-19T10:37:26.750Z,14.70
2023-04-19T10:39:48.455Z,14.79
2023-04-19T10:42:10.644Z,14.93
2023-04-19T10:44:32.421Z,15.11
2023-04-19T10:46:54.833Z,15.32
2023-04-19T10:49:16.892Z,15.49
2023-04-19T10:51:43.351Z,15.50
2023-04-19T10:54:09.849Z,15.50
2023-04-19T10:56:34.519Z,15.70
2023-04-19T10:59:02.733Z,15.83
2023-04-19T11:01:45.713Z,15.89
2023-04-19T11:04:09.920Z,15.72
2023-04-19T11:06:33.609Z,15.65
2023-04-19T11:08:55.622Z,15.75
2023-04-19T11:11:17.583Z,15.94
2023-04-19T11:13:39.176Z,15.99
2023-04-19T11:16:07.649Z,15.97
2023-04-19T11:18:32.667Z,16.10
2023-04-19T11:20:55.010Z,16.18
2023-04-19T11:23:17.954Z,16.25
2023-04-19T11:25:39.743Z,16.34
2023-04-19T11:28:01.724Z,16.36
2023-04-19T11:30:32.054Z,16.44
2023-04-19T11:32:56.384Z,16.46
2023-04-19T11:35:27.901Z,16.47
2023-04-19T11:37:50.397Z,16.46
2023-04-19T11:40:19.935Z,16.53
2023-04-19T11:42:41.739Z,16.66
2023-04-19T11:45:03.867Z,16.74
2023-04-19T11:47:29.400Z,16.65
2023-04-19T11:49:51.266Z,16.57
2023-04-19T11:52:23.025Z,16.49
2023-04-19T11:54:46.827Z,16.52
2023-04-19T11:57:09.410Z,16.61
2023-04-19T11:59:35.330Z,16.68
2023-04-19T12:02:04.253Z,16.82
2023-04-19T12:04:28.448Z,16.90
2023-04-19T12:07:01.897Z,16.90
2023-04-19T12:09:24.229Z,16.95
2023-04-19T12:11:50.675Z,16.90
2023-04-19T12:14:17.092Z,16.75
2023-04-19T12:16:39.153Z,16.64
2023-04-19T12:19:18.209Z,16.59
2023-04-19T12:21:41.017Z,16.60
2023-04-19T12:24:03.733Z,16.75
2023-04-19T12:26:29.866Z,16.75
2023-04-19T12:28:51.667Z,16.79
2023-04-19T12:31:13.403Z,16.92
2023-04-19T12:33:35.326Z,17.14
2023-04-19T12:35:57.041Z,17.23
2023-04-19T12:38:18.934Z,17.24
2023-04-19T12:40:40.804Z,17.34
2023-04-19T12:43:02.963Z,17.43
2023-04-19T12:45:25.010Z,17.46
2023-04-19T12:47:48.760Z,17.47
2023-04-19T12:50:10.921Z,17.57
2023-04-19T12:52:33.801Z,17.67
2023-04-19T12:54:55.630Z,17.81
2023-04-19T12:57:17.583Z,17.76
2023-04-19T12:59:39.444Z,17.53
2023-04-19T13:02:01.696Z,17.19
2023-04-19T13:04:24.217Z,17.10
2023-04-19T13:06:46.821Z,16.85
2023-04-19T13:09:14.341Z,16.70
2023-04-19T13:11:36.823Z,16.62
2023-04-19T13:13:58.609Z,16.59
2023-04-19T13:16:21.037Z,16.54
2023-04-19T13:18:43.200Z,16.61
2023-04-19T13:21:07.452Z,16.77
2023-04-19T13:23:30.408Z,16.91
2023-04-19T13:25:52.396Z,17.07
2023-04-19T13:28:14.449Z,17.16
2023-04-19T13:30:36.353Z,17.24
2023-04-19T13:32:58.159Z,17.30
2023-04-19T13:35:20.200Z,17.19
2023-04-19T13:37:44.362Z,17.17
2023-04-19T13:40:18.779Z,17.18
2023-04-19T13:42:41.627Z,17.15
2023-04-19T13:45:03.817Z,17.13
2023-04-19T13:47:25.886Z,17.09
2023-04-19T13:49:52.149Z,16.99
2023-04-19T13:52:14.942Z,16.88
2023-04-19T13:54:36.727Z,16.82
2023-04-19T13:56:58.825Z,16.81
2023-04-19T13:59:21.956Z,16.98
2023-04-19T14:01:43.883Z,17.17
2023-04-19T14:04:06.156Z,17.18
2023-04-19T14:06:28.376Z,17.20
2023-04-19T14:08:51.412Z,17.06
2023-04-19T14:11:13.737Z,16.98
2023-04-19T14:13:35.805Z,16.90
2023-04-19T14:15:58.072Z,16.93
2023-04-19T14:18:20.266Z,17.06
2023-04-19T14:20:42.526Z,17.06
2023-04-19T14:23:04.847Z,17.01
2023-04-19T14:25:27.448Z,17.05
2023-04-19T14:27:49.400Z,17.18
2023-04-19T14:30:11.632Z,17.15
2023-04-19T14:32:33.964Z,17.08
2023-04-19T14:34:56.440Z,17.07
2023-04-19T14:37:19.463Z,17.28
2023-04-19T14:39:41.449Z,17.49
2023-04-19T14:42:03.610Z,17.58
2023-04-19T14:44:25.390Z,17.53
2023-04-19T14:46:47.568Z,17.36
2023-04-19T14:49:09.958Z,17.25
2023-04-19T14:51:33.168Z,17.26
2023-04-19T14:53:54.996Z,17.30
2023-04-19T14:56:17.305Z,17.38
2023-04-19T14:58:39.342Z,17.37
2023-04-19T15:01:11.795Z,17.42
2023-04-19T15:03:34.333Z,17.48
2023-04-19T15:05:56.409Z,17.60
2023-04-19T15:10:46.401Z,17.71
2023-04-19T15:13:08.236Z,17.59
2023-04-19T15:15:30.053Z,17.53
2023-04-19T15:17:52.774Z,17.40
2023-04-19T15:20:14.923Z,17.35
2023-04-19T15:22:37.381Z,17.38
2023-04-19T15:25:02.062Z,17.48
2023-04-19T15:27:23.892Z,17.45
2023-04-19T15:29:47.623Z,17.42
2023-04-19T15:32:09.441Z,17.28
2023-04-19T15:34:31.319Z,17.24
2023-04-19T15:36:54.162Z,17.21
2023-04-19T15:39:16.337Z,17.25
2023-04-19T15:41:38.394Z,17.30
2023-04-19T15:44:01.243Z,17.22
2023-04-19T15:46:23.299Z,17.33
2023-04-19T15:48:48.290Z,17.40
2023-04-19T15:51:11.432Z,17.32
2023-04-19T15:53:33.449Z,17.16
2023-04-19T15:55:56.730Z,17.04
2023-04-19T15:58:19.522Z,16.96
2023-04-19T16:00:41.291Z,16.83
2023-04-19T16:03:03.413Z,16.85
2023-04-19T16:05:26.021Z,16.80
2023-04-19T16:07:47.924Z,16.86
2023-04-19T16:10:11.662Z,16.85
2023-04-19T16:12:33.730Z,16.74
2023-04-19T16:14:55.521Z,16.59
2023-04-19T16:17:17.270Z,16.53
2023-04-19T16:19:38.947Z,16.53
2023-04-19T16:22:02.349Z,16.62
2023-04-19T16:24:24.088Z,16.67
2023-04-19T16:26:46.845Z,16.63
2023-04-19T16:29:08.850Z,16.61
2023-04-19T16:31:30.810Z,16.52
2023-04-19T16:33:52.595Z,16.48
2023-04-19T16:36:14.349Z,16.50
2023-04-19T16:38:36.589Z,16.48
2023-04-19T16:41:00.613Z,16.37
2023-04-19T16:43:22.522Z,16.22
2023-04-19T16:45:44.564Z,16.23
2023-04-19T16:48:06.744Z,16.15
2023-04-19T16:50:28.683Z,16.09
2023-04-19T16:52:50.591Z,16.09
2023-04-19T16:55:12.430Z,16.15
2023-04-19T16:57:34.655Z,16.17
2023-04-19T16:59:56.653Z,16.13
2023-04-19T17:02:19.504Z,16.06
2023-04-19T17:04:42.318Z,16.04
2023-04-19T17:07:04.429Z,15.99
2023-04-19T17:09:26.463Z,15.91
2023-04-19T17:11:48.151Z,15.90
2023-04-19T17:14:10.116Z,15.87
2023-04-19T17:16:31.979Z,15.80
2023-04-19T17:18:56.346Z,15.78
2023-04-19T17:21:18.141Z,15.67
2023-04-19T17:23:39.972Z,15.69
2023-04-19T17:26:01.979Z,15.63
2023-04-19T17:28:23.760Z,15.71
2023-04-19T17:30:45.817Z,15.78
2023-04-19T17:33:07.738Z,15.77
2023-04-19T17:35:29.570Z,15.80
2023-04-19T17:37:52.119Z,15.84
2023-04-19T17:40:14.269Z,15.96
2023-04-19T17:42:36.054Z,16.05
2023-04-19T17:44:58.532Z,15.94
2023-04-19T17:47:21.264Z,15.82
2023-04-19T17:49:46.105Z,15.75
2023-04-19T17:52:07.871Z,15.84
2023-04-19T17:54:30.046Z,15.96
2023-04-19T17:56:52.822Z,16.03
2023-04-19T17:59:14.776Z,16.18
2023-04-19T18:01:36.774Z,16.27
2023-04-19T18:03:59.030Z,16.36
2023-04-19T18:06:21.974Z,16.44
2023-04-19T18:08:44.029Z,16.50
2023-04-19T18:11:07.045Z,16.48
2023-04-19T18:13:28.757Z,16.46
2023-04-19T18:15:50.360Z,16.38
2023-04-19T18:18:12.025Z,16.16
2023-04-19T18:20:35.072Z,15.91
2023-04-19T18:22:59.205Z,15.60
2023-04-19T18:25:20.791Z,15.34
2023-04-19T18:27:42.522Z,15.02
2023-04-19T18:30:06.544Z,14.77
2023-04-19T18:32:30.139Z,14.52
2023-04-19T18:34:53.195Z,14.28
2023-04-19T18:37:16.946Z,14.09
2023-04-19T18:39:38.555Z,13.88
2023-04-19T18:42:01.852Z,13.74
2023-04-19T18:44:44.104Z,13.59
2023-04-19T18:47:05.368Z,13.46
2023-04-19T18:49:26.978Z,13.36
2023-04-19T18:51:50.342Z,13.23
2023-04-19T18:54:11.962Z,13.14
2023-04-19T18:58:59.802Z,12.91
2023-04-19T19:01:21.552Z,12.85
2023-04-19T19:06:08.036Z,12.74
2023-04-19T19:08:30.440Z,12.63
2023-04-19T19:13:16.588Z,12.52
2023-04-19T19:15:40.691Z,12.47
2023-04-19T19:18:03.775Z,12.41
2023-04-19T19:20:26.045Z,12.35
2023-04-19T19:22:48.441Z,12.30
2023-04-19T19:25:12.157Z,12.25
2023-04-19T19:27:35.328Z,12.23
2023-04-19T19:29:58.795Z,12.20
2023-04-19T19:32:20.674Z,12.17
2023-04-19T19:34:51.852Z,12.16
2023-04-19T19:37:16.937Z,12.09
2023-04-19T19:39:38.716Z,12.03
2023-04-19T19:42:05.367Z,11.98
2023-04-19T19:44:28.111Z,11.92
2023-04-19T19:46:49.741Z,11.84
2023-04-19T19:49:13.203Z,11.82
2023-04-19T19:53:59.943Z,11.73
2023-04-19T19:56:23.874Z,11.72
2023-04-19T19:58:50.289Z,11.69
2023-04-19T20:01:13.398Z,11.64
2023-04-19T20:03:37.953Z,11.61
2023-04-19T20:06:00.172Z,11.56
2023-04-19T20:08:23.678Z,11.54
2023-04-19T20:10:45.774Z,11.47
2023-04-19T20:13:09.076Z,11.39
2023-04-19T20:15:31.038Z,11.25
2023-04-19T20:17:52.682Z,11.19
2023-04-19T20:20:14.917Z,11.07
2023-04-19T20:22:38.117Z,11.01
2023-04-19T20:25:00.459Z,11.02
2023-04-19T20:27:22.202Z,10.99
2023-04-19T20:29:43.952Z,10.88
2023-04-19T20:32:05.974Z,10.81
2023-04-19T20:34:48.013Z,10.75
2023-04-19T20:37:30.655Z,10.68
2023-04-19T20:40:15.019Z,10.57
2023-04-19T20:42:56.777Z,10.54
2023-04-19T20:45:38.412Z,10.54
2023-04-19T20:48:20.118Z,10.52
2023-04-19T20:51:01.806Z,10.50
2023-04-19T20:53:43.500Z,10.44
2023-04-19T20:56:25.570Z,10.38
2023-04-19T20:59:07.355Z,10.28
2023-04-19T21:01:49.027Z,10.25
2023-04-19T21:04:30.845Z,10.20
2023-04-19T21:07:12.622Z,10.15
2023-04-19T21:09:54.202Z,10.05
2023-04-19T21:12:35.968Z,9.98
2023-04-19T21:14:57.643Z,9.93
2023-04-19T21:17:20.660Z,9.86
2023-04-19T21:19:42.411Z,9.77
2023-04-19T21:22:04.120Z,9.76
2023-04-19T21:24:26.210Z,9.70
2023-04-19T21:26:47.952Z,9.61
2023-04-19T21:29:11.557Z,9.57
2023-04-19T21:31:33.223Z,9.58
2023-04-19T21:33:54.898Z,9.55
2023-04-19T21:36:16.535Z,9.53
2023-04-19T21:38:38.160Z,9.53
2023-04-19T21:40:59.780Z,9.47
2023-04-19T21:43:23.179Z,9.41
2023-04-19T21:45:44.769Z,9.36
2023-04-19T21:48:06.552Z,9.29
2023-04-19T21:50:28.316Z,9.33
2023-04-19T21:52:49.957Z,9.29
2023-04-19T21:55:11.617Z,9.25
2023-04-19T21:57:33.299Z,9.23
2023-04-19T21:59:54.949Z,9.16
2023-04-19T22:02:17.154Z,9.17
2023-04-19T22:04:39.654Z,9.11
2023-04-19T22:07:02.629Z,9.12
2023-04-19T22:09:24.638Z,9.07
2023-04-19T22:11:47.128Z,9.05
2023-04-19T22:14:09.123Z,9.07
2023-04-19T22:16:32.732Z,8.98
2023-04-19T22:18:54.499Z,8.98
2023-04-19T22:21:16.163Z,8.96
2023-04-19T22:23:38.047Z,8.91
2023-04-19T22:26:00.239Z,8.87
2023-04-19T22:28:21.930Z,8.83
2023-04-19T22:30:43.529Z,8.82
2023-04-19T22:33:05.356Z,8.82
2023-04-19T22:35:27.280Z,8.83
2023-04-19T22:37:48.920Z,8.80
2023-04-19T22:40:12.066Z,8.74
2023-04-19T22:42:33.740Z,8.73
2023-04-19T22:44:55.509Z,8.67
2023-04-19T22:47:17.480Z,8.64
2023-04-19T22:49:43.027Z,8.61
2023-04-19T22:52:05.050Z,8.59
2023-04-19T22:54:26.926Z,8.56
2023-04-19T22:56:48.603Z,8.55
2023-04-19T22:59:10.556Z,8.53
2023-04-19T23:01:32.254Z,8.50
2023-04-19T23:03:53.950Z,8.51
2023-04-19T23:06:17.868Z,8.50
2023-04-19T23:08:40.335Z,8.45
2023-04-19T23:11:02.005Z,8.39
2023-04-19T23:13:23.745Z,8.33
2023-04-19T23:15:45.841Z,8.27
2023-04-19T23:18:07.730Z,8.21
2023-04-19T23:20:30.744Z,8.12
2023-04-19T23:22:52.406Z,8.11
2023-04-19T23:25:14.127Z,8.09
2023-04-19T23:27:36.240Z,8.05
2023-04-19T23:29:57.877Z,8.07
2023-04-19T23:32:19.699Z,8.03
2023-04-19T23:34:41.466Z,7.99
2023-04-19T23:37:03.186Z,7.95
2023-04-19T23:39:24.933Z,7.94
2023-04-19T23:41:46.552Z,7.97
2023-04-19T23:44:08.251Z,7.97
2023-04-19T23:46:29.920Z,7.94
2023-04-19T23:48:51.581Z,7.90
2023-04-19T23:51:14.634Z,7.88
2023-04-19T23:53:36.325Z,7.83
2023-04-19T23:55:57.956Z,7.79
2023-04-19T23:58:19.701Z,7.82
